sensor_id;sensor_type;location;lat;lon;timestamp;P1;durP1;ratioP1;P2;durP2;ratioP2
4873;SDS011;2451;49.970;9.068;2023-05-23T00:01:01;33.20;;;23.13;;
4873;SDS011;2451;49.970;9.068;2023-05-23T00:03:27;29.17;;;22.75;;
4873;SDS011;2451;49.970;9.068;2023-05-23T00:05:55;33.70;;;22.75;;
4873;SDS011;2451;49.970;9.068;2023-05-23T00:08:21;29.70;;;21.55;;
4873;SDS011;2451;49.970;9.068;2023-05-23T00:10:46;27.00;;;22.25;;
4873;SDS011;2451;49.970;9.068;2023-05-23T00:13:12;36.63;;;23.80;;
4873;SDS011;2451;49.970;9.068;2023-05-23T00:15:38;27.92;;;21.73;;
4873;SDS011;2451;49.970;9.068;2023-05-23T00:18:05;32.58;;;23.65;;
4873;SDS011;2451;49.970;9.068;2023-05-23T00:20:33;33.42;;;23.95;;
4873;SDS011;2451;49.970;9.068;2023-05-23T00:23:00;32.42;;;25.30;;
4873;SDS011;2451;49.970;9.068;2023-05-23T00:25:27;29.65;;;22.58;;
4873;SDS011;2451;49.970;9.068;2023-05-23T00:28:01;31.17;;;23.67;;
4873;SDS011;2451;49.970;9.068;2023-05-23T00:30:31;35.90;;;24.10;;
4873;SDS011;2451;49.970;9.068;2023-05-23T00:32:57;29.25;;;22.92;;
4873;SDS011;2451;49.970;9.068;2023-05-23T00:35:24;27.42;;;22.50;;
4873;SDS011;2451;49.970;9.068;2023-05-23T00:37:49;26.42;;;21.85;;
4873;SDS011;2451;49.970;9.068;2023-05-23T00:40:16;26.90;;;21.83;;
4873;SDS011;2451;49.970;9.068;2023-05-23T00:42:42;26.25;;;21.95;;
4873;SDS011;2451;49.970;9.068;2023-05-23T00:45:08;29.80;;;22.33;;
4873;SDS011;2451;49.970;9.068;2023-05-23T00:47:36;25.58;;;21.20;;
4873;SDS011;2451;49.970;9.068;2023-05-23T00:50:03;28.92;;;21.63;;
4873;SDS011;2451;49.970;9.068;2023-05-23T00:52:30;27.55;;;21.75;;
4873;SDS011;2451;49.970;9.068;2023-05-23T00:54:55;32.38;;;22.10;;
4873;SDS011;2451;49.970;9.068;2023-05-23T00:57:21;27.88;;;21.63;;
4873;SDS011;2451;49.970;9.068;2023-05-23T00:59:47;27.00;;;22.20;;
4873;SDS011;2451;49.970;9.068;2023-05-23T01:02:12;30.13;;;22.85;;
4873;SDS011;2451;49.970;9.068;2023-05-23T01:04:38;27.75;;;22.17;;
4873;SDS011;2451;49.970;9.068;2023-05-23T01:07:04;28.65;;;21.90;;
4873;SDS011;2451;49.970;9.068;2023-05-23T01:09:29;31.38;;;22.25;;
4873;SDS011;2451;49.970;9.068;2023-05-23T01:15:09;28.38;;;22.23;;
4873;SDS011;2451;49.970;9.068;2023-05-23T01:17:44;29.38;;;21.70;;
4873;SDS011;2451;49.970;9.068;2023-05-23T01:20:16;28.55;;;21.60;;
4873;SDS011;2451;49.970;9.068;2023-05-23T01:28:23;27.30;;;21.08;;
4873;SDS011;2451;49.970;9.068;2023-05-23T01:31:02;28.63;;;21.13;;
4873;SDS011;2451;49.970;9.068;2023-05-23T01:33:30;30.50;;;22.67;;
4873;SDS011;2451;49.970;9.068;2023-05-23T01:35:57;30.85;;;22.58;;
4873;SDS011;2451;49.970;9.068;2023-05-23T01:38:27;26.52;;;22.17;;
4873;SDS011;2451;49.970;9.068;2023-05-23T01:40:52;31.20;;;23.48;;
4873;SDS011;2451;49.970;9.068;2023-05-23T01:43:18;27.88;;;22.05;;
4873;SDS011;2451;49.970;9.068;2023-05-23T01:45:44;28.75;;;23.58;;
4873;SDS011;2451;49.970;9.068;2023-05-23T01:48:10;29.52;;;22.73;;
4873;SDS011;2451;49.970;9.068;2023-05-23T01:50:37;27.10;;;22.10;;
4873;SDS011;2451;49.970;9.068;2023-05-23T01:53:03;29.35;;;22.70;;
4873;SDS011;2451;49.970;9.068;2023-05-23T01:55:30;30.60;;;23.40;;
4873;SDS011;2451;49.970;9.068;2023-05-23T01:57:57;27.45;;;22.40;;
4873;SDS011;2451;49.970;9.068;2023-05-23T02:00:24;29.55;;;22.90;;
4873;SDS011;2451;49.970;9.068;2023-05-23T02:02:49;36.50;;;24.25;;
4873;SDS011;2451;49.970;9.068;2023-05-23T02:05:15;29.80;;;23.17;;
4873;SDS011;2451;49.970;9.068;2023-05-23T02:07:41;32.55;;;23.30;;
4873;SDS011;2451;49.970;9.068;2023-05-23T02:10:07;35.15;;;24.73;;
4873;SDS011;2451;49.970;9.068;2023-05-23T02:12:33;30.80;;;24.65;;
4873;SDS011;2451;49.970;9.068;2023-05-23T02:14:59;34.22;;;25.08;;
4873;SDS011;2451;49.970;9.068;2023-05-23T02:17:25;33.67;;;25.88;;
4873;SDS011;2451;49.970;9.068;2023-05-23T02:19:50;35.17;;;26.42;;
4873;SDS011;2451;49.970;9.068;2023-05-23T02:22:16;34.35;;;26.10;;
4873;SDS011;2451;49.970;9.068;2023-05-23T02:24:41;38.80;;;27.52;;
4873;SDS011;2451;49.970;9.068;2023-05-23T02:27:07;35.65;;;26.98;;
4873;SDS011;2451;49.970;9.068;2023-05-23T02:29:33;34.08;;;26.02;;
4873;SDS011;2451;49.970;9.068;2023-05-23T02:31:58;34.63;;;27.15;;
4873;SDS011;2451;49.970;9.068;2023-05-23T02:34:24;32.38;;;26.27;;
4873;SDS011;2451;49.970;9.068;2023-05-23T02:36:50;38.95;;;27.45;;
4873;SDS011;2451;49.970;9.068;2023-05-23T02:39:15;36.25;;;26.38;;
4873;SDS011;2451;49.970;9.068;2023-05-23T02:41:41;39.13;;;26.95;;
4873;SDS011;2451;49.970;9.068;2023-05-23T02:44:07;34.45;;;27.05;;
4873;SDS011;2451;49.970;9.068;2023-05-23T02:46:32;36.05;;;27.17;;
4873;SDS011;2451;49.970;9.068;2023-05-23T02:48:58;40.20;;;30.92;;
4873;SDS011;2451;49.970;9.068;2023-05-23T02:51:23;38.30;;;29.60;;
4873;SDS011;2451;49.970;9.068;2023-05-23T02:53:50;36.53;;;29.08;;
4873;SDS011;2451;49.970;9.068;2023-05-23T02:56:15;37.90;;;30.48;;
4873;SDS011;2451;49.970;9.068;2023-05-23T02:58:41;39.33;;;32.13;;
4873;SDS011;2451;49.970;9.068;2023-05-23T03:01:06;40.88;;;30.83;;
4873;SDS011;2451;49.970;9.068;2023-05-23T03:03:32;39.40;;;31.15;;
4873;SDS011;2451;49.970;9.068;2023-05-23T03:05:58;38.67;;;30.98;;
4873;SDS011;2451;49.970;9.068;2023-05-23T03:08:24;38.53;;;30.73;;
4873;SDS011;2451;49.970;9.068;2023-05-23T03:10:50;37.47;;;30.52;;
4873;SDS011;2451;49.970;9.068;2023-05-23T03:13:16;40.03;;;30.38;;
4873;SDS011;2451;49.970;9.068;2023-05-23T03:15:42;40.83;;;31.92;;
4873;SDS011;2451;49.970;9.068;2023-05-23T03:18:08;39.63;;;30.92;;
4873;SDS011;2451;49.970;9.068;2023-05-23T03:20:34;39.28;;;31.48;;
4873;SDS011;2451;49.970;9.068;2023-05-23T03:22:59;43.50;;;33.15;;
4873;SDS011;2451;49.970;9.068;2023-05-23T03:25:25;43.00;;;32.05;;
4873;SDS011;2451;49.970;9.068;2023-05-23T03:27:50;45.08;;;32.25;;
4873;SDS011;2451;49.970;9.068;2023-05-23T03:30:16;42.88;;;33.42;;
4873;SDS011;2451;49.970;9.068;2023-05-23T03:32:41;41.30;;;32.35;;
4873;SDS011;2451;49.970;9.068;2023-05-23T03:35:07;44.45;;;35.00;;
4873;SDS011;2451;49.970;9.068;2023-05-23T03:37:33;43.33;;;33.80;;
4873;SDS011;2451;49.970;9.068;2023-05-23T03:39:59;41.22;;;33.80;;
4873;SDS011;2451;49.970;9.068;2023-05-23T03:42:25;43.75;;;33.67;;
4873;SDS011;2451;49.970;9.068;2023-05-23T03:44:52;43.28;;;33.85;;
4873;SDS011;2451;49.970;9.068;2023-05-23T03:47:17;43.17;;;34.47;;
4873;SDS011;2451;49.970;9.068;2023-05-23T03:49:43;42.60;;;34.28;;
4873;SDS011;2451;49.970;9.068;2023-05-23T03:52:09;40.42;;;33.35;;
4873;SDS011;2451;49.970;9.068;2023-05-23T03:54:35;42.90;;;33.83;;
4873;SDS011;2451;49.970;9.068;2023-05-23T03:57:00;41.28;;;33.97;;
4873;SDS011;2451;49.970;9.068;2023-05-23T03:59:26;40.75;;;32.75;;
4873;SDS011;2451;49.970;9.068;2023-05-23T04:01:52;40.63;;;32.90;;
4873;SDS011;2451;49.970;9.068;2023-05-23T04:04:18;44.40;;;33.38;;
4873;SDS011;2451;49.970;9.068;2023-05-23T04:06:44;40.03;;;32.80;;
4873;SDS011;2451;49.970;9.068;2023-05-23T04:09:11;39.38;;;32.13;;
4873;SDS011;2451;49.970;9.068;2023-05-23T04:11:37;41.10;;;32.70;;
4873;SDS011;2451;49.970;9.068;2023-05-23T04:14:03;44.22;;;32.75;;
4873;SDS011;2451;49.970;9.068;2023-05-23T04:16:28;41.67;;;31.75;;
4873;SDS011;2451;49.970;9.068;2023-05-23T04:18:57;44.47;;;34.03;;
4873;SDS011;2451;49.970;9.068;2023-05-23T04:21:23;40.80;;;32.28;;
4873;SDS011;2451;49.970;9.068;2023-05-23T04:23:49;36.92;;;31.90;;
4873;SDS011;2451;49.970;9.068;2023-05-23T04:26:14;38.95;;;31.05;;
4873;SDS011;2451;49.970;9.068;2023-05-23T04:28:40;36.58;;;29.35;;
4873;SDS011;2451;49.970;9.068;2023-05-23T04:31:10;37.88;;;29.27;;
4873;SDS011;2451;49.970;9.068;2023-05-23T04:33:36;33.05;;;29.27;;
4873;SDS011;2451;49.970;9.068;2023-05-23T04:36:02;33.42;;;28.70;;
4873;SDS011;2451;49.970;9.068;2023-05-23T04:38:28;34.22;;;28.98;;
4873;SDS011;2451;49.970;9.068;2023-05-23T04:40:53;34.85;;;28.33;;
4873;SDS011;2451;49.970;9.068;2023-05-23T04:43:19;34.67;;;27.40;;
4873;SDS011;2451;49.970;9.068;2023-05-23T04:45:44;32.13;;;27.02;;
4873;SDS011;2451;49.970;9.068;2023-05-23T04:50:41;35.88;;;27.17;;
4873;SDS011;2451;49.970;9.068;2023-05-23T04:53:07;31.17;;;25.55;;
4873;SDS011;2451;49.970;9.068;2023-05-23T04:55:32;28.50;;;24.75;;
4873;SDS011;2451;49.970;9.068;2023-05-23T04:57:58;31.30;;;24.73;;
4873;SDS011;2451;49.970;9.068;2023-05-23T05:00:24;28.40;;;23.08;;
4873;SDS011;2451;49.970;9.068;2023-05-23T05:02:50;25.30;;;22.52;;
4873;SDS011;2451;49.970;9.068;2023-05-23T05:05:16;27.90;;;22.27;;
4873;SDS011;2451;49.970;9.068;2023-05-23T05:07:41;27.85;;;23.05;;
4873;SDS011;2451;49.970;9.068;2023-05-23T05:10:07;26.38;;;21.98;;
4873;SDS011;2451;49.970;9.068;2023-05-23T05:12:40;25.40;;;21.27;;
4873;SDS011;2451;49.970;9.068;2023-05-23T05:15:10;24.55;;;19.92;;
4873;SDS011;2451;49.970;9.068;2023-05-23T05:17:37;26.27;;;20.73;;
4873;SDS011;2451;49.970;9.068;2023-05-23T05:20:03;24.33;;;20.15;;
4873;SDS011;2451;49.970;9.068;2023-05-23T05:22:41;26.88;;;19.98;;
4873;SDS011;2451;49.970;9.068;2023-05-23T05:25:08;23.90;;;19.25;;
4873;SDS011;2451;49.970;9.068;2023-05-23T05:27:34;23.20;;;18.27;;
4873;SDS011;2451;49.970;9.068;2023-05-23T05:30:06;24.83;;;20.10;;
4873;SDS011;2451;49.970;9.068;2023-05-23T05:32:33;23.65;;;18.30;;
4873;SDS011;2451;49.970;9.068;2023-05-23T05:34:59;23.08;;;19.27;;
4873;SDS011;2451;49.970;9.068;2023-05-23T05:37:25;25.45;;;19.52;;
4873;SDS011;2451;49.970;9.068;2023-05-23T05:39:51;22.92;;;19.52;;
4873;SDS011;2451;49.970;9.068;2023-05-23T05:42:18;23.67;;;19.08;;
4873;SDS011;2451;49.970;9.068;2023-05-23T05:44:44;24.52;;;18.98;;
4873;SDS011;2451;49.970;9.068;2023-05-23T05:47:09;25.63;;;20.27;;
4873;SDS011;2451;49.970;9.068;2023-05-23T05:49:35;24.33;;;19.35;;
4873;SDS011;2451;49.970;9.068;2023-05-23T05:52:00;27.15;;;20.67;;
4873;SDS011;2451;49.970;9.068;2023-05-23T05:54:26;26.88;;;21.13;;
4873;SDS011;2451;49.970;9.068;2023-05-23T05:56:51;26.10;;;21.05;;
4873;SDS011;2451;49.970;9.068;2023-05-23T05:59:18;28.00;;;20.63;;
4873;SDS011;2451;49.970;9.068;2023-05-23T06:01:44;28.45;;;20.10;;
4873;SDS011;2451;49.970;9.068;2023-05-23T06:04:10;25.58;;;20.63;;
4873;SDS011;2451;49.970;9.068;2023-05-23T06:06:35;23.88;;;20.20;;
4873;SDS011;2451;49.970;9.068;2023-05-23T06:09:01;24.27;;;20.27;;
4873;SDS011;2451;49.970;9.068;2023-05-23T06:11:26;24.70;;;19.63;;
4873;SDS011;2451;49.970;9.068;2023-05-23T06:13:52;26.70;;;19.48;;
4873;SDS011;2451;49.970;9.068;2023-05-23T06:16:17;23.50;;;19.85;;
4873;SDS011;2451;49.970;9.068;2023-05-23T06:18:43;25.73;;;21.27;;
4873;SDS011;2451;49.970;9.068;2023-05-23T06:21:09;25.10;;;21.48;;
4873;SDS011;2451;49.970;9.068;2023-05-23T06:23:34;27.60;;;21.38;;
4873;SDS011;2451;49.970;9.068;2023-05-23T06:26:00;28.08;;;21.65;;
4873;SDS011;2451;49.970;9.068;2023-05-23T06:28:26;26.65;;;21.48;;
4873;SDS011;2451;49.970;9.068;2023-05-23T06:30:51;27.48;;;21.77;;
4873;SDS011;2451;49.970;9.068;2023-05-23T06:33:17;26.65;;;21.98;;
4873;SDS011;2451;49.970;9.068;2023-05-23T06:35:42;31.38;;;21.38;;
4873;SDS011;2451;49.970;9.068;2023-05-23T06:38:08;25.70;;;21.20;;
4873;SDS011;2451;49.970;9.068;2023-05-23T06:40:33;25.30;;;21.38;;
4873;SDS011;2451;49.970;9.068;2023-05-23T06:42:59;24.90;;;20.48;;
4873;SDS011;2451;49.970;9.068;2023-05-23T06:45:24;24.80;;;20.63;;
4873;SDS011;2451;49.970;9.068;2023-05-23T06:47:50;24.92;;;21.10;;
4873;SDS011;2451;49.970;9.068;2023-05-23T06:50:16;25.50;;;19.80;;
4873;SDS011;2451;49.970;9.068;2023-05-23T06:52:43;25.20;;;19.23;;
4873;SDS011;2451;49.970;9.068;2023-05-23T06:55:10;21.67;;;18.55;;
4873;SDS011;2451;49.970;9.068;2023-05-23T06:57:39;19.83;;;17.73;;
4873;SDS011;2451;49.970;9.068;2023-05-23T07:00:05;20.40;;;17.15;;
4873;SDS011;2451;49.970;9.068;2023-05-23T07:02:31;18.67;;;16.67;;
4873;SDS011;2451;49.970;9.068;2023-05-23T07:04:56;20.33;;;17.05;;
4873;SDS011;2451;49.970;9.068;2023-05-23T07:07:22;19.85;;;16.52;;
4873;SDS011;2451;49.970;9.068;2023-05-23T07:09:47;19.23;;;15.68;;
4873;SDS011;2451;49.970;9.068;2023-05-23T07:12:12;20.75;;;15.93;;
4873;SDS011;2451;49.970;9.068;2023-05-23T07:14:38;18.33;;;15.80;;
4873;SDS011;2451;49.970;9.068;2023-05-23T07:17:04;17.65;;;14.63;;
4873;SDS011;2451;49.970;9.068;2023-05-23T07:19:30;24.13;;;14.80;;
4873;SDS011;2451;49.970;9.068;2023-05-23T07:21:55;16.50;;;13.07;;
4873;SDS011;2451;49.970;9.068;2023-05-23T07:24:21;19.35;;;14.40;;
4873;SDS011;2451;49.970;9.068;2023-05-23T07:26:46;16.10;;;13.70;;
4873;SDS011;2451;49.970;9.068;2023-05-23T07:29:12;15.63;;;13.65;;
4873;SDS011;2451;49.970;9.068;2023-05-23T07:31:38;14.77;;;13.18;;
4873;SDS011;2451;49.970;9.068;2023-05-23T07:34:03;15.88;;;13.25;;
4873;SDS011;2451;49.970;9.068;2023-05-23T07:36:29;15.20;;;11.90;;
4873;SDS011;2451;49.970;9.068;2023-05-23T07:38:57;14.15;;;12.15;;
4873;SDS011;2451;49.970;9.068;2023-05-23T07:41:23;13.77;;;11.38;;
4873;SDS011;2451;49.970;9.068;2023-05-23T07:43:49;13.45;;;11.30;;
4873;SDS011;2451;49.970;9.068;2023-05-23T07:46:15;13.65;;;11.13;;
4873;SDS011;2451;49.970;9.068;2023-05-23T07:48:41;12.63;;;10.10;;
4873;SDS011;2451;49.970;9.068;2023-05-23T07:51:06;15.13;;;9.00;;
4873;SDS011;2451;49.970;9.068;2023-05-23T07:53:32;10.52;;;7.57;;
4873;SDS011;2451;49.970;9.068;2023-05-23T07:55:57;8.95;;;7.43;;
4873;SDS011;2451;49.970;9.068;2023-05-23T07:58:23;9.55;;;7.75;;
4873;SDS011;2451;49.970;9.068;2023-05-23T08:00:48;10.80;;;7.82;;
4873;SDS011;2451;49.970;9.068;2023-05-23T08:03:14;11.40;;;7.15;;
4873;SDS011;2451;49.970;9.068;2023-05-23T08:05:41;9.15;;;6.72;;
4873;SDS011;2451;49.970;9.068;2023-05-23T08:08:06;10.20;;;7.28;;
4873;SDS011;2451;49.970;9.068;2023-05-23T08:10:32;10.48;;;7.40;;
4873;SDS011;2451;49.970;9.068;2023-05-23T08:12:57;10.48;;;7.47;;
4873;SDS011;2451;49.970;9.068;2023-05-23T08:15:24;10.65;;;7.88;;
4873;SDS011;2451;49.970;9.068;2023-05-23T08:17:50;11.82;;;7.70;;
4873;SDS011;2451;49.970;9.068;2023-05-23T08:20:20;11.80;;;8.50;;
4873;SDS011;2451;49.970;9.068;2023-05-23T08:22:46;10.32;;;7.72;;
4873;SDS011;2451;49.970;9.068;2023-05-23T08:25:11;9.10;;;7.85;;
4873;SDS011;2451;49.970;9.068;2023-05-23T08:27:37;9.15;;;7.72;;
4873;SDS011;2451;49.970;9.068;2023-05-23T08:30:04;10.88;;;7.88;;
4873;SDS011;2451;49.970;9.068;2023-05-23T08:32:30;10.70;;;7.93;;
4873;SDS011;2451;49.970;9.068;2023-05-23T08:34:55;9.23;;;7.82;;
4873;SDS011;2451;49.970;9.068;2023-05-23T08:37:21;9.77;;;7.80;;
4873;SDS011;2451;49.970;9.068;2023-05-23T08:39:46;11.43;;;7.35;;
4873;SDS011;2451;49.970;9.068;2023-05-23T08:42:12;12.02;;;7.32;;
4873;SDS011;2451;49.970;9.068;2023-05-23T08:44:37;12.35;;;6.63;;
4873;SDS011;2451;49.970;9.068;2023-05-23T08:47:04;9.18;;;6.13;;
4873;SDS011;2451;49.970;9.068;2023-05-23T08:49:32;9.25;;;6.18;;
4873;SDS011;2451;49.970;9.068;2023-05-23T08:52:00;7.82;;;5.47;;
4873;SDS011;2451;49.970;9.068;2023-05-23T08:54:27;6.90;;;5.90;;
4873;SDS011;2451;49.970;9.068;2023-05-23T08:56:53;7.78;;;5.95;;
4873;SDS011;2451;49.970;9.068;2023-05-23T08:59:19;7.45;;;5.80;;
4873;SDS011;2451;49.970;9.068;2023-05-23T09:01:46;7.10;;;5.57;;
4873;SDS011;2451;49.970;9.068;2023-05-23T09:04:12;9.07;;;5.70;;
4873;SDS011;2451;49.970;9.068;2023-05-23T09:06:38;6.57;;;5.30;;
4873;SDS011;2451;49.970;9.068;2023-05-23T09:09:03;7.60;;;6.50;;
4873;SDS011;2451;49.970;9.068;2023-05-23T09:11:29;7.28;;;6.07;;
4873;SDS011;2451;49.970;9.068;2023-05-23T09:13:58;7.47;;;5.63;;
4873;SDS011;2451;49.970;9.068;2023-05-23T09:16:24;7.38;;;5.57;;
4873;SDS011;2451;49.970;9.068;2023-05-23T09:18:56;6.70;;;5.43;;
4873;SDS011;2451;49.970;9.068;2023-05-23T09:21:23;7.18;;;5.45;;
4873;SDS011;2451;49.970;9.068;2023-05-23T09:23:48;7.88;;;5.80;;
4873;SDS011;2451;49.970;9.068;2023-05-23T09:26:14;6.03;;;5.25;;
4873;SDS011;2451;49.970;9.068;2023-05-23T09:28:40;6.63;;;5.25;;
4873;SDS011;2451;49.970;9.068;2023-05-23T09:31:07;6.43;;;5.57;;
4873;SDS011;2451;49.970;9.068;2023-05-23T09:36:07;5.80;;;5.05;;
4873;SDS011;2451;49.970;9.068;2023-05-23T09:38:36;7.93;;;5.32;;
4873;SDS011;2451;49.970;9.068;2023-05-23T09:41:03;6.15;;;5.15;;
4873;SDS011;2451;49.970;9.068;2023-05-23T09:43:29;9.80;;;5.57;;
4873;SDS011;2451;49.970;9.068;2023-05-23T09:45:54;8.35;;;5.40;;
4873;SDS011;2451;49.970;9.068;2023-05-23T09:48:27;7.63;;;5.00;;
4873;SDS011;2451;49.970;9.068;2023-05-23T09:50:57;7.03;;;4.72;;
4873;SDS011;2451;49.970;9.068;2023-05-23T09:53:23;6.45;;;4.78;;
4873;SDS011;2451;49.970;9.068;2023-05-23T09:55:49;8.52;;;4.70;;
4873;SDS011;2451;49.970;9.068;2023-05-23T09:58:16;6.22;;;4.57;;
4873;SDS011;2451;49.970;9.068;2023-05-23T10:00:44;6.50;;;4.80;;
4873;SDS011;2451;49.970;9.068;2023-05-23T10:03:13;6.13;;;4.72;;
4873;SDS011;2451;49.970;9.068;2023-05-23T10:05:52;6.35;;;4.82;;
4873;SDS011;2451;49.970;9.068;2023-05-23T10:08:24;5.57;;;4.50;;
4873;SDS011;2451;49.970;9.068;2023-05-23T10:13:37;6.32;;;4.18;;
4873;SDS011;2451;49.970;9.068;2023-05-23T10:16:25;5.47;;;4.30;;
4873;SDS011;2451;49.970;9.068;2023-05-23T10:18:59;6.55;;;4.25;;
4873;SDS011;2451;49.970;9.068;2023-05-23T10:21:43;5.90;;;4.65;;
4873;SDS011;2451;49.970;9.068;2023-05-23T10:24:12;6.25;;;4.97;;
4873;SDS011;2451;49.970;9.068;2023-05-23T10:26:39;6.35;;;4.78;;
4873;SDS011;2451;49.970;9.068;2023-05-23T10:29:05;5.47;;;4.20;;
4873;SDS011;2451;49.970;9.068;2023-05-23T10:31:31;7.55;;;4.78;;
4873;SDS011;2451;49.970;9.068;2023-05-23T10:34:07;7.45;;;4.70;;
4873;SDS011;2451;49.970;9.068;2023-05-23T10:39:18;6.50;;;4.70;;
4873;SDS011;2451;49.970;9.068;2023-05-23T10:41:52;6.18;;;4.38;;
4873;SDS011;2451;49.970;9.068;2023-05-23T10:44:28;7.25;;;4.47;;
4873;SDS011;2451;49.970;9.068;2023-05-23T10:46:55;5.03;;;4.13;;
4873;SDS011;2451;49.970;9.068;2023-05-23T10:49:58;7.07;;;4.35;;
4873;SDS011;2451;49.970;9.068;2023-05-23T10:52:18;5.72;;;4.05;;
4873;SDS011;2451;49.970;9.068;2023-05-23T10:54:46;5.13;;;3.92;;
4873;SDS011;2451;49.970;9.068;2023-05-23T10:57:16;5.93;;;4.38;;
4873;SDS011;2451;49.970;9.068;2023-05-23T10:59:44;9.00;;;4.30;;
4873;SDS011;2451;49.970;9.068;2023-05-23T11:04:40;5.18;;;3.75;;
4873;SDS011;2451;49.970;9.068;2023-05-23T11:07:08;5.13;;;4.18;;
4873;SDS011;2451;49.970;9.068;2023-05-23T11:10:02;7.18;;;4.38;;
4873;SDS011;2451;49.970;9.068;2023-05-23T11:12:35;5.15;;;4.00;;
4873;SDS011;2451;49.970;9.068;2023-05-23T11:15:02;6.13;;;3.72;;
4873;SDS011;2451;49.970;9.068;2023-05-23T11:17:54;7.18;;;4.15;;
4873;SDS011;2451;49.970;9.068;2023-05-23T11:20:22;4.93;;;3.55;;
4873;SDS011;2451;49.970;9.068;2023-05-23T11:22:58;5.18;;;3.70;;
4873;SDS011;2451;49.970;9.068;2023-05-23T11:25:38;4.72;;;3.63;;
4873;SDS011;2451;49.970;9.068;2023-05-23T11:28:05;5.43;;;4.00;;
4873;SDS011;2451;49.970;9.068;2023-05-23T11:30:31;6.47;;;3.38;;
4873;SDS011;2451;49.970;9.068;2023-05-23T11:32:57;5.82;;;3.80;;
4873;SDS011;2451;49.970;9.068;2023-05-23T11:35:23;4.47;;;2.95;;
4873;SDS011;2451;49.970;9.068;2023-05-23T11:37:48;4.57;;;3.45;;
4873;SDS011;2451;49.970;9.068;2023-05-23T11:40:24;6.40;;;3.38;;
4873;SDS011;2451;49.970;9.068;2023-05-23T11:42:56;4.93;;;3.42;;
4873;SDS011;2451;49.970;9.068;2023-05-23T11:45:23;4.38;;;3.13;;
4873;SDS011;2451;49.970;9.068;2023-05-23T11:47:49;6.03;;;3.28;;
4873;SDS011;2451;49.970;9.068;2023-05-23T11:50:14;7.53;;;3.05;;
4873;SDS011;2451;49.970;9.068;2023-05-23T11:52:40;4.53;;;3.00;;
4873;SDS011;2451;49.970;9.068;2023-05-23T11:55:07;4.65;;;3.20;;
4873;SDS011;2451;49.970;9.068;2023-05-23T11:57:36;4.97;;;3.17;;
4873;SDS011;2451;49.970;9.068;2023-05-23T12:00:04;5.25;;;3.10;;
4873;SDS011;2451;49.970;9.068;2023-05-23T12:02:37;6.05;;;3.30;;
4873;SDS011;2451;49.970;9.068;2023-05-23T12:05:07;4.55;;;3.00;;
4873;SDS011;2451;49.970;9.068;2023-05-23T12:07:33;4.43;;;3.10;;
4873;SDS011;2451;49.970;9.068;2023-05-23T12:10:00;5.05;;;3.00;;
4873;SDS011;2451;49.970;9.068;2023-05-23T12:12:27;5.70;;;3.33;;
4873;SDS011;2451;49.970;9.068;2023-05-23T12:14:56;6.00;;;3.35;;
4873;SDS011;2451;49.970;9.068;2023-05-23T12:17:22;5.38;;;3.15;;
4873;SDS011;2451;49.970;9.068;2023-05-23T12:19:48;7.28;;;3.40;;
4873;SDS011;2451;49.970;9.068;2023-05-23T12:22:13;4.70;;;3.40;;
4873;SDS011;2451;49.970;9.068;2023-05-23T12:24:45;5.65;;;3.28;;
4873;SDS011;2451;49.970;9.068;2023-05-23T12:27:11;5.18;;;3.40;;
4873;SDS011;2451;49.970;9.068;2023-05-23T12:29:37;5.30;;;3.40;;
4873;SDS011;2451;49.970;9.068;2023-05-23T12:32:03;4.15;;;2.92;;
4873;SDS011;2451;49.970;9.068;2023-05-23T12:34:30;4.50;;;3.00;;
4873;SDS011;2451;49.970;9.068;2023-05-23T12:36:57;5.45;;;3.17;;
4873;SDS011;2451;49.970;9.068;2023-05-23T12:39:24;4.05;;;2.80;;
4873;SDS011;2451;49.970;9.068;2023-05-23T12:41:53;3.70;;;2.70;;
4873;SDS011;2451;49.970;9.068;2023-05-23T12:44:39;4.45;;;2.30;;
4873;SDS011;2451;49.970;9.068;2023-05-23T12:47:06;4.95;;;2.60;;
4873;SDS011;2451;49.970;9.068;2023-05-23T12:49:31;3.70;;;2.70;;
4873;SDS011;2451;49.970;9.068;2023-05-23T12:51:57;4.00;;;2.45;;
4873;SDS011;2451;49.970;9.068;2023-05-23T12:54:22;2.83;;;2.10;;
4873;SDS011;2451;49.970;9.068;2023-05-23T12:56:48;3.15;;;2.33;;
4873;SDS011;2451;49.970;9.068;2023-05-23T12:59:13;3.97;;;2.90;;
4873;SDS011;2451;49.970;9.068;2023-05-23T13:01:39;3.78;;;2.40;;
4873;SDS011;2451;49.970;9.068;2023-05-23T13:04:05;4.35;;;2.70;;
4873;SDS011;2451;49.970;9.068;2023-05-23T13:06:30;4.60;;;2.50;;
4873;SDS011;2451;49.970;9.068;2023-05-23T13:08:57;3.53;;;2.47;;
4873;SDS011;2451;49.970;9.068;2023-05-23T13:11:23;6.03;;;2.50;;
4873;SDS011;2451;49.970;9.068;2023-05-23T13:13:49;3.65;;;2.40;;
4873;SDS011;2451;49.970;9.068;2023-05-23T13:16:15;3.03;;;2.00;;
4873;SDS011;2451;49.970;9.068;2023-05-23T13:18:41;2.92;;;2.03;;
4873;SDS011;2451;49.970;9.068;2023-05-23T13:21:06;4.35;;;2.40;;
4873;SDS011;2451;49.970;9.068;2023-05-23T13:23:32;3.53;;;2.05;;
4873;SDS011;2451;49.970;9.068;2023-05-23T13:25:59;3.22;;;2.50;;
4873;SDS011;2451;49.970;9.068;2023-05-23T13:28:25;4.18;;;2.50;;
4873;SDS011;2451;49.970;9.068;2023-05-23T13:30:51;3.65;;;2.22;;
4873;SDS011;2451;49.970;9.068;2023-05-23T13:33:16;3.47;;;2.28;;
4873;SDS011;2451;49.970;9.068;2023-05-23T13:35:42;4.13;;;2.17;;
4873;SDS011;2451;49.970;9.068;2023-05-23T13:38:08;3.42;;;2.00;;
4873;SDS011;2451;49.970;9.068;2023-05-23T13:40:33;2.45;;;1.90;;
4873;SDS011;2451;49.970;9.068;2023-05-23T13:42:59;3.13;;;1.60;;
4873;SDS011;2451;49.970;9.068;2023-05-23T13:45:24;2.55;;;1.80;;
4873;SDS011;2451;49.970;9.068;2023-05-23T13:47:50;2.22;;;1.80;;
4873;SDS011;2451;49.970;9.068;2023-05-23T13:50:16;2.63;;;1.80;;
4873;SDS011;2451;49.970;9.068;2023-05-23T13:52:41;2.33;;;1.70;;
4873;SDS011;2451;49.970;9.068;2023-05-23T13:55:07;1.90;;;1.50;;
4873;SDS011;2451;49.970;9.068;2023-05-23T13:57:33;2.65;;;1.70;;
4873;SDS011;2451;49.970;9.068;2023-05-23T13:59:58;2.80;;;1.77;;
4873;SDS011;2451;49.970;9.068;2023-05-23T14:02:24;2.30;;;1.63;;
4873;SDS011;2451;49.970;9.068;2023-05-23T14:04:51;3.42;;;1.77;;
4873;SDS011;2451;49.970;9.068;2023-05-23T14:07:16;2.58;;;1.60;;
4873;SDS011;2451;49.970;9.068;2023-05-23T14:09:42;2.47;;;1.52;;
4873;SDS011;2451;49.970;9.068;2023-05-23T14:12:08;2.13;;;1.60;;
4873;SDS011;2451;49.970;9.068;2023-05-23T14:14:33;2.85;;;1.55;;
4873;SDS011;2451;49.970;9.068;2023-05-23T14:16:59;3.38;;;1.60;;
4873;SDS011;2451;49.970;9.068;2023-05-23T14:19:25;3.15;;;1.73;;
4873;SDS011;2451;49.970;9.068;2023-05-23T14:21:50;2.67;;;1.55;;
4873;SDS011;2451;49.970;9.068;2023-05-23T14:24:16;1.95;;;1.25;;
4873;SDS011;2451;49.970;9.068;2023-05-23T14:26:41;1.60;;;1.45;;
4873;SDS011;2451;49.970;9.068;2023-05-23T14:29:07;2.78;;;1.35;;
4873;SDS011;2451;49.970;9.068;2023-05-23T14:31:32;4.95;;;1.83;;
4873;SDS011;2451;49.970;9.068;2023-05-23T14:33:58;2.42;;;1.77;;
4873;SDS011;2451;49.970;9.068;2023-05-23T14:36:24;2.08;;;1.60;;
4873;SDS011;2451;49.970;9.068;2023-05-23T14:38:50;3.25;;;1.80;;
4873;SDS011;2451;49.970;9.068;2023-05-23T14:41:15;2.90;;;1.85;;
4873;SDS011;2451;49.970;9.068;2023-05-23T14:43:41;4.00;;;2.03;;
4873;SDS011;2451;49.970;9.068;2023-05-23T14:46:07;6.20;;;2.08;;
4873;SDS011;2451;49.970;9.068;2023-05-23T14:48:32;5.20;;;2.40;;
4873;SDS011;2451;49.970;9.068;2023-05-23T14:50:58;4.47;;;2.65;;
4873;SDS011;2451;49.970;9.068;2023-05-23T14:53:26;4.97;;;2.58;;
4873;SDS011;2451;49.970;9.068;2023-05-23T14:55:52;4.15;;;2.60;;
4873;SDS011;2451;49.970;9.068;2023-05-23T14:58:20;4.80;;;2.78;;
4873;SDS011;2451;49.970;9.068;2023-05-23T15:00:46;5.22;;;2.70;;
4873;SDS011;2451;49.970;9.068;2023-05-23T15:03:12;4.07;;;2.70;;
4873;SDS011;2451;49.970;9.068;2023-05-23T15:05:38;4.40;;;2.63;;
4873;SDS011;2451;49.970;9.068;2023-05-23T15:08:04;6.47;;;3.28;;
4873;SDS011;2451;49.970;9.068;2023-05-23T15:10:29;5.22;;;2.88;;
4873;SDS011;2451;49.970;9.068;2023-05-23T15:12:55;4.03;;;2.80;;
4873;SDS011;2451;49.970;9.068;2023-05-23T15:15:20;3.92;;;2.90;;
4873;SDS011;2451;49.970;9.068;2023-05-23T15:17:48;3.75;;;2.65;;
4873;SDS011;2451;49.970;9.068;2023-05-23T15:20:17;4.07;;;2.95;;